Time;durP1;ratioP1;P1;durP2;ratioP2;P2;SDS_P1;SDS_P2;PMS_P1;PMS_P2;Temp;Humidity;BMP_temperature;BMP_pressure;BME280_temperature;BME280_humidity;BME280_pressure;Samples;Min_cycle;Max_cycle;Signal;HPM_P1;HPM_P2
2020/12/28 00:01:03;;;;;;;4.17;3.77;;;;;;;;;;5060428;28;20177;-71
2020/12/28 00:03:28;;;;;;;4.23;3.83;;;;;;;;;;5054665;28;20196;-71
2020/12/28 00:05:53;;;;;;;4.53;4.13;;;;;;;;;;5063189;28;20172;-70
2020/12/28 00:08:19;;;;;;;4.90;4.40;;;;;;;;;;5050124;28;20189;-71
2020/12/28 00:10:44;;;;;;;5.83;4.43;;;;;;;;;;5060698;28;20181;-69
2020/12/28 00:13:09;;;;;;;5.97;4.30;;;;;;;;;;5054693;28;20181;-69
2020/12/28 00:15:35;;;;;;;7.60;4.50;;;;;;;;;;5062389;28;20205;-68
2020/12/28 00:18:01;;;;;;;5.43;4.80;;;;;;;;;;5055665;28;20763;-69
2020/12/28 00:20:29;;;;;;;5.00;4.27;;;;;;;;;;5062496;28;20177;-70
2020/12/28 00:22:54;;;;;;;5.30;4.80;;;;;;;;;;5051777;28;20181;-70
2020/12/28 00:25:24;;;;;;;5.97;4.47;;;;;;;;;;5061876;28;20231;-70
2020/12/28 00:27:50;;;;;;;5.23;4.63;;;;;;;;;;5062903;28;20683;-70
2020/12/28 00:30:15;;;;;;;5.33;4.57;;;;;;;;;;5053902;28;20623;-70
2020/12/28 00:32:41;;;;;;;6.43;5.07;;;;;;;;;;5064309;28;20607;-70
2020/12/28 00:35:09;;;;;;;5.43;4.93;;;;;;;;;;5051127;28;20225;-70
2020/12/28 00:37:34;;;;;;;5.80;4.90;;;;;;;;;;5061956;28;20181;-70
2020/12/28 00:39:59;;;;;;;7.90;5.97;;;;;;;;;;5053925;28;20193;-70
2020/12/28 00:42:25;;;;;;;5.17;4.67;;;;;;;;;;5062345;28;20635;-70
2020/12/28 00:44:51;;;;;;;6.30;5.70;;;;;;;;;;5055232;28;20177;-70
2020/12/28 00:47:17;;;;;;;6.10;5.50;;;;;;;;;;5049237;28;20646;-70
2020/12/28 00:49:42;;;;;;;5.93;5.33;;;;;;;;;;5039801;28;20294;-70
2020/12/28 00:52:07;;;;;;;6.37;5.77;;;;;;;;;;5047094;28;20200;-70
2020/12/28 00:54:33;;;;;;;6.37;5.70;;;;;;;;;;5032729;28;20193;-69
2020/12/28 00:56:59;;;;;;;6.87;5.70;;;;;;;;;;5044166;28;20220;-70
2020/12/28 00:59:24;;;;;;;7.13;5.93;;;;;;;;;;5044296;28;20185;-70
2020/12/28 01:01:57;;;;;;;6.20;5.60;;;;;;;;;;5043312;28;20183;-70
2020/12/28 01:04:23;;;;;;;6.20;5.23;;;;;;;;;;5047292;28;20177;-70
2020/12/28 01:06:48;;;;;;;7.00;6.10;;;;;;;;;;5037433;28;20252;-70
2020/12/28 01:09:14;;;;;;;7.03;6.20;;;;;;;;;;5046069;28;20188;-69
2020/12/28 01:11:40;;;;;;;7.33;6.47;;;;;;;;;;5035607;28;20182;-71
2020/12/28 01:14:05;;;;;;;8.10;6.40;;;;;;;;;;5049510;28;20221;-71
2020/12/28 01:16:31;;;;;;;7.67;5.93;;;;;;;;;;5034154;28;20206;-70
2020/12/28 01:18:56;;;;;;;6.70;5.73;;;;;;;;;;5049931;28;20216;-70
2020/12/28 01:21:22;;;;;;;7.13;6.03;;;;;;;;;;5038831;28;20247;-71
2020/12/28 01:23:48;;;;;;;8.80;6.50;;;;;;;;;;5044361;28;20200;-70
2020/12/28 01:26:15;;;;;;;7.70;6.90;;;;;;;;;;5037869;28;20181;-71
2020/12/28 01:28:40;;;;;;;8.33;7.20;;;;;;;;;;5045816;28;20673;-71
2020/12/28 01:31:05;;;;;;;7.80;7.00;;;;;;;;;;5042334;28;20192;-71
2020/12/28 01:33:31;;;;;;;8.97;7.10;;;;;;;;;;5040012;28;20178;-71
2020/12/28 01:35:56;;;;;;;9.53;7.90;;;;;;;;;;5041529;28;20803;-71
2020/12/28 01:38:21;;;;;;;8.23;6.80;;;;;;;;;;5037568;28;20186;-71
2020/12/28 01:40:47;;;;;;;8.70;7.33;;;;;;;;;;5045551;28;20665;-71
2020/12/28 01:43:12;;;;;;;8.00;7.20;;;;;;;;;;5041066;28;20232;-72
2020/12/28 01:45:38;;;;;;;9.77;8.10;;;;;;;;;;5045919;28;20182;-71
2020/12/28 01:48:03;;;;;;;9.67;7.73;;;;;;;;;;5035847;28;20184;-72
2020/12/28 01:50:28;;;;;;;9.80;8.63;;;;;;;;;;5047618;28;20196;-72
2020/12/28 01:52:54;;;;;;;10.60;8.23;;;;;;;;;;5038926;28;20188;-71
2020/12/28 01:55:19;;;;;;;10.87;9.50;;;;;;;;;;5047235;28;20292;-71
2020/12/28 01:57:45;;;;;;;9.83;8.40;;;;;;;;;;5039055;28;20559;-71
2020/12/28 02:00:10;;;;;;;11.00;8.87;;;;;;;;;;5047257;28;20185;-72
2020/12/28 02:02:36;;;;;;;10.73;8.67;;;;;;;;;;5042321;28;20207;-71
2020/12/28 02:05:02;;;;;;;10.83;8.80;;;;;;;;;;5040581;28;20191;-71
2020/12/28 02:07:33;;;;;;;11.03;9.50;;;;;;;;;;5042718;28;20197;-71
2020/12/28 02:10:04;;;;;;;11.70;9.00;;;;;;;;;;5037646;28;20196;-71
2020/12/28 02:12:30;;;;;;;11.50;9.77;;;;;;;;;;5043731;28;20181;-71
2020/12/28 02:14:55;;;;;;;16.00;9.80;;;;;;;;;;5037278;28;20217;-71
2020/12/28 02:17:20;;;;;;;12.63;10.23;;;;;;;;;;5041712;28;20224;-71
2020/12/28 02:19:45;;;;;;;11.77;9.83;;;;;;;;;;5034730;28;20190;-71
2020/12/28 02:22:11;;;;;;;13.77;10.30;;;;;;;;;;5048110;28;20640;-72
2020/12/28 02:24:36;;;;;;;10.73;9.13;;;;;;;;;;5034376;28;20193;-70
2020/12/28 02:27:01;;;;;;;11.27;9.37;;;;;;;;;;5041215;28;20185;-71
2020/12/28 02:29:27;;;;;;;11.87;9.70;;;;;;;;;;5035485;28;20676;-71
2020/12/28 02:31:52;;;;;;;12.03;9.80;;;;;;;;;;5039240;28;20182;-71
2020/12/28 02:34:18;;;;;;;11.60;9.40;;;;;;;;;;5037908;28;20272;-71
2020/12/28 02:36:43;;;;;;;12.17;10.17;;;;;;;;;;5047411;28;20288;-71
2020/12/28 02:39:08;;;;;;;14.27;11.37;;;;;;;;;;5047735;28;20185;-70
2020/12/28 02:41:34;;;;;;;14.00;11.00;;;;;;;;;;5036092;28;20185;-71
2020/12/28 02:43:59;;;;;;;15.13;12.10;;;;;;;;;;5045535;28;20181;-71
2020/12/28 02:46:24;;;;;;;14.20;10.80;;;;;;;;;;5036447;28;20182;-71
2020/12/28 02:48:50;;;;;;;13.27;10.20;;;;;;;;;;5044690;28;20675;-71
2020/12/28 02:51:15;;;;;;;13.17;10.77;;;;;;;;;;5039198;28;20221;-71
2020/12/28 02:53:40;;;;;;;11.27;9.37;;;;;;;;;;5042948;28;20193;-71
2020/12/28 02:56:06;;;;;;;13.37;10.93;;;;;;;;;;5037022;28;20216;-71
2020/12/28 02:58:32;;;;;;;13.17;11.63;;;;;;;;;;5041774;28;20541;-70
2020/12/28 03:00:57;;;;;;;13.67;11.43;;;;;;;;;;5035485;28;20181;-70
2020/12/28 03:03:23;;;;;;;14.87;12.20;;;;;;;;;;5046594;28;20238;-70
2020/12/28 03:05:48;;;;;;;13.87;11.53;;;;;;;;;;5040945;28;20173;-70
2020/12/28 03:08:13;;;;;;;14.53;11.27;;;;;;;;;;5040817;28;20197;-69
2020/12/28 03:10:39;;;;;;;14.37;11.70;;;;;;;;;;5041751;28;20181;-72
2020/12/28 03:13:04;;;;;;;14.80;11.30;;;;;;;;;;5036696;28;20187;-72
2020/12/28 03:15:29;;;;;;;13.80;11.03;;;;;;;;;;5043330;28;20209;-72
2020/12/28 03:17:55;;;;;;;13.07;11.10;;;;;;;;;;5036750;28;20193;-71
2020/12/28 03:20:20;;;;;;;13.47;11.10;;;;;;;;;;5044634;28;20185;-71
2020/12/28 03:22:45;;;;;;;15.77;11.37;;;;;;;;;;5035619;28;20196;-71
2020/12/28 03:25:10;;;;;;;12.77;10.10;;;;;;;;;;5047445;28;20260;-71
2020/12/28 03:27:36;;;;;;;11.03;9.80;;;;;;;;;;5034700;28;20260;-71
2020/12/28 03:30:03;;;;;;;10.63;9.20;;;;;;;;;;5045588;28;20487;-71
2020/12/28 03:32:28;;;;;;;11.40;10.20;;;;;;;;;;5037790;28;22115;-71
2020/12/28 03:34:53;;;;;;;11.40;9.47;;;;;;;;;;5043888;28;20696;-71
2020/12/28 03:37:19;;;;;;;8.63;7.73;;;;;;;;;;5037547;28;20901;-71
2020/12/28 03:39:44;;;;;;;9.20;7.53;;;;;;;;;;5043256;28;20185;-71
2020/12/28 03:42:09;;;;;;;8.37;7.43;;;;;;;;;;5045198;28;20224;-71
2020/12/28 03:44:34;;;;;;;9.23;7.43;;;;;;;;;;5037537;28;20234;-72
2020/12/28 03:47:00;;;;;;;8.23;7.30;;;;;;;;;;5045361;28;20621;-71
2020/12/28 03:49:25;;;;;;;7.87;7.07;;;;;;;;;;5035925;28;20189;-71
2020/12/28 03:51:50;;;;;;;7.70;6.90;;;;;;;;;;5041849;28;20188;-71
2020/12/28 03:54:16;;;;;;;8.30;7.47;;;;;;;;;;5038636;28;20318;-72
2020/12/28 03:56:41;;;;;;;8.47;7.53;;;;;;;;;;5044461;28;20210;-72
2020/12/28 03:59:07;;;;;;;10.37;7.53;;;;;;;;;;5030344;28;20538;-71
2020/12/28 04:01:33;;;;;;;8.00;7.20;;;;;;;;;;5044190;28;20201;-71
2020/12/28 04:03:58;;;;;;;8.30;7.40;;;;;;;;;;5038045;28;20550;-71
2020/12/28 04:06:24;;;;;;;8.60;7.57;;;;;;;;;;5041429;28;20193;-71
2020/12/28 04:08:49;;;;;;;10.27;7.53;;;;;;;;;;5042480;28;20193;-71
2020/12/28 04:11:14;;;;;;;7.97;7.17;;;;;;;;;;5040451;28;20216;-71
2020/12/28 04:13:40;;;;;;;13.87;8.20;;;;;;;;;;5048038;28;20177;-71
2020/12/28 04:16:05;;;;;;;7.87;7.07;;;;;;;;;;5036695;28;20240;-71
2020/12/28 04:18:30;;;;;;;10.00;7.17;;;;;;;;;;5045873;28;20182;-71
2020/12/28 04:20:55;;;;;;;7.97;6.60;;;;;;;;;;5035546;28;20185;-71
2020/12/28 04:23:21;;;;;;;8.30;6.80;;;;;;;;;;5048144;28;20548;-71
2020/12/28 04:25:46;;;;;;;9.07;6.63;;;;;;;;;;5037079;28;20177;-71
2020/12/28 04:28:11;;;;;;;8.53;6.97;;;;;;;;;;5045993;28;20523;-71
2020/12/28 04:30:37;;;;;;;10.37;7.40;;;;;;;;;;5036059;28;20344;-71
2020/12/28 04:33:02;;;;;;;9.07;6.43;;;;;;;;;;5045247;28;20177;-71
2020/12/28 04:35:27;;;;;;;9.00;7.30;;;;;;;;;;5038075;28;20229;-71
2020/12/28 04:37:53;;;;;;;7.83;6.67;;;;;;;;;;5046639;28;20200;-71
2020/12/28 04:40:18;;;;;;;9.70;7.00;;;;;;;;;;5048190;28;20534;-71
2020/12/28 04:42:44;;;;;;;7.90;7.10;;;;;;;;;;5041096;28;20185;-71
2020/12/28 04:45:10;;;;;;;7.27;6.50;;;;;;;;;;5048349;28;20174;-71
2020/12/28 04:47:36;;;;;;;8.63;7.30;;;;;;;;;;5035741;28;20186;-71
2020/12/28 04:50:04;;;;;;;10.37;7.70;;;;;;;;;;5047955;28;20177;-71
2020/12/28 04:52:29;;;;;;;9.33;7.17;;;;;;;;;;5034168;28;20186;-71
2020/12/28 04:54:54;;;;;;;11.07;7.23;;;;;;;;;;5044254;28;20205;-71
2020/12/28 04:57:20;;;;;;;9.97;7.97;;;;;;;;;;5033722;28;20187;-71
2020/12/28 04:59:45;;;;;;;8.93;7.70;;;;;;;;;;5047550;28;20224;-71
2020/12/28 05:02:10;;;;;;;9.77;7.83;;;;;;;;;;5036626;28;20697;-71
2020/12/28 05:04:36;;;;;;;9.47;7.93;;;;;;;;;;5048061;28;20193;-71
2020/12/28 05:07:06;;;;;;;9.33;8.20;;;;;;;;;;5035199;28;20198;-71
2020/12/28 05:09:33;;;;;;;11.97;8.27;;;;;;;;;;5047066;28;20193;-71
2020/12/28 05:12:01;;;;;;;10.47;7.93;;;;;;;;;;5048979;28;20184;-71
2020/12/28 05:14:27;;;;;;;10.63;8.90;;;;;;;;;;5037392;28;20573;-71
2020/12/28 05:17:11;;;;;;;12.77;8.67;;;;;;;;;;5051946;28;20555;-71
2020/12/28 05:19:37;;;;;;;14.27;8.47;;;;;;;;;;5035802;28;20324;-71
2020/12/28 05:22:03;;;;;;;10.77;8.30;;;;;;;;;;5045781;28;20272;-71
2020/12/28 05:24:29;;;;;;;10.77;8.13;;;;;;;;;;5036086;28;20193;-71
2020/12/28 05:26:55;;;;;;;10.20;8.23;;;;;;;;;;5048041;28;20557;-69
2020/12/28 05:29:26;;;;;;;10.67;8.73;;;;;;;;;;5037940;28;20201;-69
2020/12/28 05:31:54;;;;;;;10.27;8.57;;;;;;;;;;5037859;28;20204;-69
2020/12/28 05:34:29;;;;;;;10.57;7.80;;;;;;;;;;5037262;28;20213;-69
2020/12/28 05:36:56;;;;;;;10.23;8.63;;;;;;;;;;5047047;28;20257;-69
2020/12/28 05:39:24;;;;;;;13.63;8.93;;;;;;;;;;5038292;28;20178;-69
2020/12/28 05:42:10;;;;;;;10.87;8.17;;;;;;;;;;5048958;28;20603;-69
2020/12/28 05:44:37;;;;;;;11.37;8.43;;;;;;;;;;5035912;28;20686;-69
2020/12/28 05:47:06;;;;;;;11.00;8.63;;;;;;;;;;5045172;28;20322;-69
2020/12/28 05:49:36;;;;;;;14.07;8.70;;;;;;;;;;5039386;28;20225;-69
2020/12/28 05:52:03;;;;;;;12.20;8.93;;;;;;;;;;5045525;28;20197;-69
2020/12/28 05:54:29;;;;;;;9.70;7.60;;;;;;;;;;5032251;28;20209;-68
2020/12/28 05:56:56;;;;;;;10.80;8.67;;;;;;;;;;5041664;28;20624;-69
2020/12/28 05:59:22;;;;;;;12.03;9.07;;;;;;;;;;5036470;28;20181;-69
2020/12/28 06:01:48;;;;;;;11.17;8.70;;;;;;;;;;5046456;28;20181;-69
2020/12/28 06:04:15;;;;;;;13.17;8.50;;;;;;;;;;5046389;28;20595;-68
2020/12/28 06:06:41;;;;;;;11.20;8.67;;;;;;;;;;5035025;28;20404;-68
2020/12/28 06:09:07;;;;;;;14.03;9.10;;;;;;;;;;5044507;28;20174;-68
2020/12/28 06:11:33;;;;;;;11.50;8.90;;;;;;;;;;5037541;28;20208;-68
2020/12/28 06:13:58;;;;;;;11.37;9.03;;;;;;;;;;5046155;28;20184;-68
2020/12/28 06:16:24;;;;;;;12.77;8.77;;;;;;;;;;5037388;28;20296;-68
2020/12/28 06:18:56;;;;;;;13.60;9.43;;;;;;;;;;5045732;28;20204;-68
2020/12/28 06:21:22;;;;;;;10.97;8.27;;;;;;;;;;5038033;28;20548;-68
2020/12/28 06:23:49;;;;;;;11.07;8.23;;;;;;;;;;5045327;28;20199;-68
2020/12/28 06:26:18;;;;;;;15.10;9.17;;;;;;;;;;5036369;28;20993;-68
2020/12/28 06:28:44;;;;;;;11.50;8.97;;;;;;;;;;5041919;28;20700;-68
2020/12/28 06:31:09;;;;;;;15.03;10.57;;;;;;;;;;5036851;28;20273;-70
2020/12/28 06:33:35;;;;;;;13.27;10.07;;;;;;;;;;5047491;28;20268;-70
2020/12/28 06:36:00;;;;;;;14.80;10.23;;;;;;;;;;5041235;28;20225;-70
2020/12/28 06:38:25;;;;;;;17.27;10.27;;;;;;;;;;5036788;28;20268;-70
2020/12/28 06:40:51;;;;;;;13.67;9.40;;;;;;;;;;5040573;28;20177;-70
2020/12/28 06:43:19;;;;;;;14.53;10.13;;;;;;;;;;5035645;28;20268;-70
2020/12/28 06:45:47;;;;;;;16.67;10.77;;;;;;;;;;5044172;28;20211;-70
2020/12/28 06:48:24;;;;;;;18.50;10.50;;;;;;;;;;5034022;28;20173;-68
2020/12/28 06:50:50;;;;;;;19.97;11.80;;;;;;;;;;5040639;28;20501;-68
2020/12/28 06:53:23;;;;;;;19.87;11.77;;;;;;;;;;5037708;28;20189;-69
2020/12/28 06:55:49;;;;;;;18.70;10.90;;;;;;;;;;5042354;28;20221;-69
2020/12/28 06:58:14;;;;;;;21.77;11.10;;;;;;;;;;5034611;28;20727;-69
2020/12/28 07:00:40;;;;;;;21.33;12.00;;;;;;;;;;5044632;28;20185;-69
2020/12/28 07:03:11;;;;;;;20.73;12.47;;;;;;;;;;5038895;28;20185;-69
2020/12/28 07:05:37;;;;;;;19.20;11.17;;;;;;;;;;4335803;28;10021621;-69
2020/12/28 07:08:02;;;;;;;22.27;12.97;;;;;;;;;;5032351;28;20845;-69
2020/12/28 07:10:27;;;;;;;25.50;12.90;;;;;;;;;;5037954;28;20294;-69
2020/12/28 07:13:04;;;;;;;22.17;12.90;;;;;;;;;;5042107;28;20193;-69
2020/12/28 07:15:29;;;;;;;23.00;12.93;;;;;;;;;;5039874;28;20673;-69
2020/12/28 07:17:54;;;;;;;26.37;13.87;;;;;;;;;;5040278;28;20200;-69
2020/12/28 07:20:20;;;;;;;28.07;12.80;;;;;;;;;;5031707;28;20197;-69
2020/12/28 07:22:45;;;;;;;23.97;12.87;;;;;;;;;;5042327;28;20223;-69
2020/12/28 07:25:12;;;;;;;23.90;13.57;;;;;;;;;;5032443;28;20197;-69
2020/12/28 07:27:42;;;;;;;28.30;15.03;;;;;;;;;;5035808;28;20190;-69
2020/12/28 07:30:10;;;;;;;26.03;13.83;;;;;;;;;;5030151;28;20196;-69
2020/12/28 07:32:36;;;;;;;34.40;15.20;;;;;;;;;;5039668;28;20363;-69
2020/12/28 07:35:02;;;;;;;31.67;15.93;;;;;;;;;;5031933;28;20229;-69
2020/12/28 07:37:29;;;;;;;34.70;15.83;;;;;;;;;;5044133;28;20296;-69
2020/12/28 07:39:54;;;;;;;35.10;14.17;;;;;;;;;;5029246;28;20215;-69
2020/12/28 07:42:21;;;;;;;29.37;14.73;;;;;;;;;;5042658;28;20189;-69
2020/12/28 07:45:00;;;;;;;35.97;15.43;;;;;;;;;;5028941;28;22264;-69
2020/12/28 07:47:51;;;;;;;32.17;15.27;;;;;;;;;;5032158;28;20243;-68
2020/12/28 07:50:17;;;;;;;34.20;15.93;;;;;;;;;;5033567;28;20243;-69
2020/12/28 07:52:59;;;;;;;37.20;16.33;;;;;;;;;;5039615;28;20606;-69
2020/12/28 07:55:27;;;;;;;31.93;15.00;;;;;;;;;;5031706;28;20262;-70
2020/12/28 07:58:17;;;;;;;32.80;15.93;;;;;;;;;;5045460;28;20290;-71
2020/12/28 08:00:46;;;;;;;31.63;14.93;;;;;;;;;;5034833;28;20193;-69
2020/12/28 08:03:11;;;;;;;36.97;16.37;;;;;;;;;;5044707;28;20197;-69
2020/12/28 08:05:37;;;;;;;29.60;15.30;;;;;;;;;;5043250;28;20770;-69
2020/12/28 08:08:02;;;;;;;31.97;16.20;;;;;;;;;;5038463;28;20192;-69
2020/12/28 08:10:28;;;;;;;38.70;18.10;;;;;;;;;;5045988;28;20186;-69
2020/12/28 08:13:01;;;;;;;32.70;15.67;;;;;;;;;;5033222;28;20219;-69
2020/12/28 08:15:31;;;;;;;28.90;14.77;;;;;;;;;;5042938;28;20637;-69
2020/12/28 08:18:08;;;;;;;26.57;14.27;;;;;;;;;;5034720;28;20277;-70
2020/12/28 08:20:34;;;;;;;31.10;15.17;;;;;;;;;;5041874;28;20223;-70
2020/12/28 08:22:59;;;;;;;26.43;13.73;;;;;;;;;;5034114;28;20237;-70
2020/12/28 08:25:29;;;;;;;25.13;13.60;;;;;;;;;;5044221;28;20570;-70
2020/12/28 08:27:56;;;;;;;29.43;14.10;;;;;;;;;;5033748;28;20189;-70
2020/12/28 08:30:21;;;;;;;23.90;13.77;;;;;;;;;;5043935;28;20641;-70
2020/12/28 08:32:48;;;;;;;26.73;13.60;;;;;;;;;;5030016;28;20189;-70
2020/12/28 08:35:13;;;;;;;23.67;13.50;;;;;;;;;;5042822;28;20221;-69
2020/12/28 08:37:46;;;;;;;22.10;13.00;;;;;;;;;;5034627;28;20606;-69
2020/12/28 08:40:22;;;;;;;22.93;13.10;;;;;;;;;;5045924;28;20268;-69
2020/12/28 08:42:56;;;;;;;24.73;13.80;;;;;;;;;;5033826;28;20193;-69
2020/12/28 08:45:24;;;;;;;24.97;12.93;;;;;;;;;;5044722;28;20319;-69
2020/12/28 08:47:51;;;;;;;25.17;13.27;;;;;;;;;;5034193;28;20645;-69
2020/12/28 08:50:16;;;;;;;23.77;13.00;;;;;;;;;;5045551;28;20197;-69
2020/12/28 08:52:56;;;;;;;22.37;12.50;;;;;;;;;;5044474;28;20196;-69
2020/12/28 08:55:22;;;;;;;20.57;12.43;;;;;;;;;;5036406;28;20664;-69
2020/12/28 08:57:53;;;;;;;21.33;12.07;;;;;;;;;;5045188;28;20186;-69
2020/12/28 09:00:20;;;;;;;21.77;12.20;;;;;;;;;;5037648;28;20224;-69
2020/12/28 09:02:56;;;;;;;20.50;11.90;;;;;;;;;;5042301;28;20539;-69
2020/12/28 09:05:23;;;;;;;22.07;10.63;;;;;;;;;;5034959;28;20221;-70
2020/12/28 09:07:49;;;;;;;16.77;11.10;;;;;;;;;;5042942;28;20782;-69
2020/12/28 09:10:15;;;;;;;17.63;10.87;;;;;;;;;;5037712;28;20185;-69
2020/12/28 09:12:41;;;;;;;20.87;11.93;;;;;;;;;;5043325;28;20344;-69
2020/12/28 09:15:07;;;;;;;22.27;12.47;;;;;;;;;;5037398;28;20205;-69
2020/12/28 09:17:32;;;;;;;23.63;11.97;;;;;;;;;;5044044;28;20217;-69
2020/12/28 09:19:57;;;;;;;17.20;11.70;;;;;;;;;;5036148;28;20243;-69
2020/12/28 09:22:23;;;;;;;17.73;11.03;;;;;;;;;;5045758;28;20263;-69
2020/12/28 09:24:48;;;;;;;18.17;12.40;;;;;;;;;;5036092;28;20185;-69
2020/12/28 09:27:14;;;;;;;18.30;10.70;;;;;;;;;;5045473;28;20216;-69
2020/12/28 09:29:39;;;;;;;20.20;11.10;;;;;;;;;;5043380;28;20724;-69
2020/12/28 09:32:04;;;;;;;17.60;10.83;;;;;;;;;;5037146;28;20189;-69
2020/12/28 09:34:30;;;;;;;18.77;9.97;;;;;;;;;;5046619;28;20679;-69
2020/12/28 09:37:04;;;;;;;13.63;8.90;;;;;;;;;;5036207;28;20649;-69
2020/12/28 09:39:29;;;;;;;16.83;10.03;;;;;;;;;;5042401;28;20185;-69
2020/12/28 09:41:55;;;;;;;19.03;10.17;;;;;;;;;;5036258;28;20185;-69
2020/12/28 09:44:20;;;;;;;17.20;9.10;;;;;;;;;;5045128;28;20190;-69
2020/12/28 09:46:45;;;;;;;14.97;9.03;;;;;;;;;;5031509;28;20564;-69
2020/12/28 09:49:11;;;;;;;15.50;9.03;;;;;;;;;;5038274;28;20970;-69
2020/12/28 09:51:36;;;;;;;17.50;9.17;;;;;;;;;;5030371;28;20528;-69
2020/12/28 09:54:02;;;;;;;19.20;9.70;;;;;;;;;;5043882;28;20197;-69
2020/12/28 09:56:27;;;;;;;18.17;9.43;;;;;;;;;;5036506;28;20209;-69
2020/12/28 09:58:53;;;;;;;17.53;9.63;;;;;;;;;;5045491;28;20275;-69
2020/12/28 10:01:18;;;;;;;18.67;10.20;;;;;;;;;;5030865;28;20209;-69
2020/12/28 10:03:43;;;;;;;14.30;10.03;;;;;;;;;;5036913;28;20193;-69
2020/12/28 10:06:32;;;;;;;24.13;10.30;;;;;;;;;;5041674;28;20201;-69
2020/12/28 10:08:58;;;;;;;18.03;11.13;;;;;;;;;;5029044;28;20932;-69
2020/12/28 10:11:24;;;;;;;20.47;11.40;;;;;;;;;;5038713;28;20216;-69
2020/12/28 10:13:49;;;;;;;19.83;11.13;;;;;;;;;;5033418;28;20221;-69
2020/12/28 10:16:20;;;;;;;19.50;11.20;;;;;;;;;;5044162;28;20231;-69
2020/12/28 10:18:46;;;;;;;17.03;10.43;;;;;;;;;;5031599;28;20189;-69
2020/12/28 10:21:11;;;;;;;18.10;10.70;;;;;;;;;;5043267;28;20189;-69
2020/12/28 10:23:37;;;;;;;18.47;11.13;;;;;;;;;;5031058;28;20224;-69
2020/12/28 10:26:05;;;;;;;16.00;10.23;;;;;;;;;;5037583;28;20175;-70
2020/12/28 10:28:30;;;;;;;21.27;10.53;;;;;;;;;;5035004;28;20680;-70
2020/12/28 10:30:56;;;;;;;18.57;9.87;;;;;;;;;;5036818;28;20185;-70
2020/12/28 10:33:21;;;;;;;22.47;10.43;;;;;;;;;;5033895;28;20189;-70
2020/12/28 10:35:46;;;;;;;17.13;9.70;;;;;;;;;;5042496;28;20229;-70
2020/12/28 10:38:11;;;;;;;16.37;9.03;;;;;;;;;;5032613;28;20276;-70
2020/12/28 10:40:38;;;;;;;15.47;8.07;;;;;;;;;;5039946;28;20196;-70
2020/12/28 10:43:03;;;;;;;17.77;9.00;;;;;;;;;;5039398;28;20190;-70
2020/12/28 10:45:28;;;;;;;17.80;9.20;;;;;;;;;;5036312;28;20531;-70
2020/12/28 10:47:54;;;;;;;16.10;8.63;;;;;;;;;;5039842;28;20190;-70
2020/12/28 10:50:19;;;;;;;15.13;7.53;;;;;;;;;;5030897;28;20213;-70
2020/12/28 10:52:44;;;;;;;14.57;7.37;;;;;;;;;;5041645;28;20199;-70
2020/12/28 10:55:10;;;;;;;13.27;8.07;;;;;;;;;;5035587;28;20576;-70
2020/12/28 10:57:35;;;;;;;13.50;7.80;;;;;;;;;;5043773;28;20200;-70
2020/12/28 11:00:00;;;;;;;11.23;7.00;;;;;;;;;;5033168;28;20633;-70
2020/12/28 11:02:26;;;;;;;13.03;7.07;;;;;;;;;;5040723;28;20219;-70
2020/12/28 11:04:51;;;;;;;9.63;6.27;;;;;;;;;;5028504;28;20204;-70
2020/12/28 11:07:16;;;;;;;10.37;6.77;;;;;;;;;;5040732;28;20688;-70
2020/12/28 11:09:42;;;;;;;13.10;6.70;;;;;;;;;;5034704;28;20192;-70
2020/12/28 11:12:07;;;;;;;13.60;6.40;;;;;;;;;;5036168;28;20539;-70
2020/12/28 11:14:32;;;;;;;12.00;6.33;;;;;;;;;;5044630;28;20193;-70
2020/12/28 11:17:01;;;;;;;8.87;6.00;;;;;;;;;;5033390;28;20692;-70
2020/12/28 11:19:27;;;;;;;11.33;5.70;;;;;;;;;;5032014;28;20667;-70
2020/12/28 11:21:52;;;;;;;9.60;5.07;;;;;;;;;;5032096;28;20208;-70
2020/12/28 11:24:18;;;;;;;12.50;5.80;;;;;;;;;;5038301;28;20205;-71
2020/12/28 11:26:43;;;;;;;14.37;6.00;;;;;;;;;;5026351;28;20193;-70
2020/12/28 11:29:08;;;;;;;12.27;5.80;;;;;;;;;;5025634;28;20185;-70
2020/12/28 11:31:33;;;;;;;10.27;5.93;;;;;;;;;;5028492;28;20692;-70
2020/12/28 11:33:59;;;;;;;9.80;5.20;;;;;;;;;;5028827;28;20268;-70
2020/12/28 11:36:24;;;;;;;10.10;4.90;;;;;;;;;;5022305;28;20595;-70
2020/12/28 11:38:50;;;;;;;8.57;4.50;;;;;;;;;;5038218;28;20193;-70
2020/12/28 11:41:16;;;;;;;14.77;7.43;;;;;;;;;;5032757;28;20189;-70
2020/12/28 11:43:42;;;;;;;13.27;6.33;;;;;;;;;;5035268;28;20191;-70
2020/12/28 11:46:09;;;;;;;13.10;5.37;;;;;;;;;;5046272;28;20185;-70
2020/12/28 11:48:42;;;;;;;11.30;4.87;;;;;;;;;;5035360;28;20197;-70
2020/12/28 11:51:08;;;;;;;10.63;4.80;;;;;;;;;;5040150;28;20191;-70
2020/12/28 11:53:35;;;;;;;8.43;4.63;;;;;;;;;;5035821;28;20215;-70
2020/12/28 11:56:12;;;;;;;7.33;4.50;;;;;;;;;;5044119;28;20839;-69
2020/12/28 11:58:40;;;;;;;11.53;4.57;;;;;;;;;;5031184;28;20185;-70
2020/12/28 12:01:12;;;;;;;5.57;4.07;;;;;;;;;;5043431;28;20199;-70
2020/12/28 12:03:37;;;;;;;10.07;4.30;;;;;;;;;;5034168;28;20185;-70
2020/12/28 12:06:03;;;;;;;7.47;4.20;;;;;;;;;;5041412;28;20201;-70
2020/12/28 12:08:28;;;;;;;11.93;3.77;;;;;;;;;;5025576;28;20218;-70
2020/12/28 12:10:54;;;;;;;6.07;3.40;;;;;;;;;;5044179;28;20257;-70
2020/12/28 12:13:20;;;;;;;6.37;3.70;;;;;;;;;;5036543;28;20216;-70
2020/12/28 12:15:46;;;;;;;5.70;3.20;;;;;;;;;;5043892;28;20201;-70
2020/12/28 12:18:12;;;;;;;6.70;3.67;;;;;;;;;;5042770;28;20591;-70
2020/12/28 12:20:38;;;;;;;7.47;3.40;;;;;;;;;;5044391;28;20189;-70
2020/12/28 12:23:04;;;;;;;8.83;4.00;;;;;;;;;;5036920;28;20542;-70
2020/12/28 12:25:29;;;;;;;8.97;4.10;;;;;;;;;;5032101;28;20759;-70
2020/12/28 12:27:55;;;;;;;8.53;4.43;;;;;;;;;;5031004;28;20190;-70
2020/12/28 12:30:20;;;;;;;6.50;4.37;;;;;;;;;;5031788;28;20225;-70
2020/12/28 12:32:45;;;;;;;9.10;4.70;;;;;;;;;;5045221;28;20197;-70
2020/12/28 12:35:11;;;;;;;12.77;4.67;;;;;;;;;;5033445;28;20218;-70
2020/12/28 12:37:36;;;;;;;9.70;4.40;;;;;;;;;;5038937;28;20193;-70
2020/12/28 12:40:02;;;;;;;7.33;4.33;;;;;;;;;;5031857;28;20178;-70
2020/12/28 12:42:27;;;;;;;10.53;5.03;;;;;;;;;;5042399;28;20193;-70
2020/12/28 12:44:52;;;;;;;6.40;4.60;;;;;;;;;;5035642;28;20194;-70
2020/12/28 12:47:19;;;;;;;14.13;5.57;;;;;;;;;;5048366;28;20197;-70
2020/12/28 12:49:44;;;;;;;9.70;5.03;;;;;;;;;;5037899;28;20547;-70
2020/12/28 12:52:15;;;;;;;8.37;4.73;;;;;;;;;;5040862;28;20190;-71
2020/12/28 12:54:40;;;;;;;8.10;4.37;;;;;;;;;;5044071;28;20231;-71
2020/12/28 12:57:06;;;;;;;9.67;4.70;;;;;;;;;;5036076;28;20218;-68
2020/12/28 12:59:32;;;;;;;8.80;4.40;;;;;;;;;;5041002;28;20192;-69
2020/12/28 13:01:57;;;;;;;9.07;4.67;;;;;;;;;;5030622;28;20623;-70
2020/12/28 13:04:31;;;;;;;7.70;4.63;;;;;;;;;;5044465;28;20629;-69
2020/12/28 13:06:58;;;;;;;11.23;5.77;;;;;;;;;;5036702;28;20287;-69
2020/12/28 13:09:23;;;;;;;12.53;5.40;;;;;;;;;;5046213;28;20202;-71
2020/12/28 13:11:49;;;;;;;11.80;5.03;;;;;;;;;;5035492;28;20212;-71
2020/12/28 13:14:14;;;;;;;10.63;5.97;;;;;;;;;;5042285;28;20625;-71
2020/12/28 13:16:39;;;;;;;11.53;6.00;;;;;;;;;;5033552;28;20209;-71
2020/12/28 13:19:05;;;;;;;8.43;5.83;;;;;;;;;;5046944;28;20182;-71
2020/12/28 13:21:30;;;;;;;10.67;4.97;;;;;;;;;;5036747;28;20186;-69
2020/12/28 13:23:55;;;;;;;12.33;5.87;;;;;;;;;;5044930;28;20177;-69
2020/12/28 13:26:20;;;;;;;9.97;6.13;;;;;;;;;;5039825;28;20668;-69
2020/12/28 13:28:46;;;;;;;10.33;5.80;;;;;;;;;;5034747;28;20185;-69
2020/12/28 13:31:14;;;;;;;11.00;6.03;;;;;;;;;;5044607;28;20196;-69
2020/12/28 13:33:39;;;;;;;9.80;6.27;;;;;;;;;;5034682;28;20692;-70
2020/12/28 13:36:05;;;;;;;10.90;5.87;;;;;;;;;;5048010;28;20229;-69
2020/12/28 13:38:30;;;;;;;10.00;5.63;;;;;;;;;;5033561;28;20220;-69
2020/12/28 13:40:55;;;;;;;10.07;6.40;;;;;;;;;;5042278;28;20193;-69
2020/12/28 13:43:21;;;;;;;11.67;6.60;;;;;;;;;;5037451;28;20186;-69
2020/12/28 13:45:46;;;;;;;11.67;6.53;;;;;;;;;;5042434;28;20551;-70
2020/12/28 13:48:11;;;;;;;9.40;6.50;;;;;;;;;;5034955;28;20645;-70
2020/12/28 13:50:40;;;;;;;14.00;7.23;;;;;;;;;;5040526;28;20526;-70
2020/12/28 13:53:05;;;;;;;13.03;7.17;;;;;;;;;;5038694;28;20659;-70
2020/12/28 13:55:33;;;;;;;8.50;6.10;;;;;;;;;;5044774;28;20232;-70
2020/12/28 13:57:58;;;;;;;7.60;5.23;;;;;;;;;;5045891;28;20181;-70
2020/12/28 14:00:23;;;;;;;10.97;5.67;;;;;;;;;;5038800;28;20192;-70
2020/12/28 14:02:49;;;;;;;10.73;6.13;;;;;;;;;;5041347;28;20564;-70
2020/12/28 14:05:14;;;;;;;8.93;6.13;;;;;;;;;;5037291;28;20553;-70
2020/12/28 14:07:39;;;;;;;9.63;4.87;;;;;;;;;;5043246;28;20567;-70
2020/12/28 14:10:05;;;;;;;9.00;5.57;;;;;;;;;;5037437;28;20185;-70
2020/12/28 14:12:30;;;;;;;9.80;5.73;;;;;;;;;;5039165;28;20268;-70
2020/12/28 14:14:55;;;;;;;10.27;5.60;;;;;;;;;;5031471;28;20194;-71
2020/12/28 14:17:23;;;;;;;8.43;5.87;;;;;;;;;;5043338;28;20187;-71
2020/12/28 14:19:48;;;;;;;12.57;5.87;;;;;;;;;;5036764;28;20494;-70
2020/12/28 14:22:13;;;;;;;7.33;4.97;;;;;;;;;;5042727;28;20235;-71
2020/12/28 14:24:39;;;;;;;12.23;5.57;;;;;;;;;;5032953;28;20184;-70
2020/12/28 14:27:04;;;;;;;8.73;5.00;;;;;;;;;;5045136;28;20184;-70